sensor_id;sensor_type;location;lat;lon;timestamp;P1;durP1;ratioP1;P2;durP2;ratioP2
2686;SDS011;1353;51.386;7.028;2022-07-23T00:00:12;20.60;;;16.70;;
2686;SDS011;1353;51.386;7.028;2022-07-23T00:02:40;18.47;;;16.10;;
2686;SDS011;1353;51.386;7.028;2022-07-23T00:05:07;20.90;;;18.30;;
2686;SDS011;1353;51.386;7.028;2022-07-23T00:07:34;22.20;;;17.63;;
2686;SDS011;1353;51.386;7.028;2022-07-23T00:10:06;21.70;;;16.70;;
2686;SDS011;1353;51.386;7.028;2022-07-23T00:12:33;21.17;;;18.20;;
2686;SDS011;1353;51.386;7.028;2022-07-23T00:15:02;23.73;;;18.60;;
2686;SDS011;1353;51.386;7.028;2022-07-23T00:17:30;26.53;;;19.50;;
2686;SDS011;1353;51.386;7.028;2022-07-23T00:19:56;27.00;;;18.77;;
2686;SDS011;1353;51.386;7.028;2022-07-23T00:22:23;22.90;;;18.00;;
2686;SDS011;1353;51.386;7.028;2022-07-23T00:24:50;28.50;;;20.60;;
2686;SDS011;1353;51.386;7.028;2022-07-23T00:27:18;30.30;;;20.67;;
2686;SDS011;1353;51.386;7.028;2022-07-23T00:29:45;27.63;;;21.90;;
2686;SDS011;1353;51.386;7.028;2022-07-23T00:32:12;31.37;;;20.43;;
2686;SDS011;1353;51.386;7.028;2022-07-23T00:34:39;29.63;;;21.57;;
2686;SDS011;1353;51.386;7.028;2022-07-23T00:37:05;32.63;;;21.43;;
2686;SDS011;1353;51.386;7.028;2022-07-23T00:39:32;30.83;;;21.33;;
2686;SDS011;1353;51.386;7.028;2022-07-23T00:41:59;30.93;;;22.40;;
2686;SDS011;1353;51.386;7.028;2022-07-23T00:44:27;33.20;;;22.57;;
2686;SDS011;1353;51.386;7.028;2022-07-23T00:46:56;30.37;;;22.53;;
2686;SDS011;1353;51.386;7.028;2022-07-23T00:49:24;34.67;;;22.80;;
2686;SDS011;1353;51.386;7.028;2022-07-23T00:51:52;27.90;;;19.20;;
2686;SDS011;1353;51.386;7.028;2022-07-23T00:54:19;29.27;;;21.77;;
2686;SDS011;1353;51.386;7.028;2022-07-23T00:56:48;33.90;;;23.20;;
2686;SDS011;1353;51.386;7.028;2022-07-23T00:59:15;32.77;;;23.17;;
2686;SDS011;1353;51.386;7.028;2022-07-23T01:01:43;32.47;;;20.70;;
2686;SDS011;1353;51.386;7.028;2022-07-23T01:04:12;31.80;;;21.90;;
2686;SDS011;1353;51.386;7.028;2022-07-23T01:06:40;32.73;;;23.03;;
2686;SDS011;1353;51.386;7.028;2022-07-23T01:09:08;32.83;;;21.87;;
2686;SDS011;1353;51.386;7.028;2022-07-23T01:11:36;32.30;;;22.07;;
2686;SDS011;1353;51.386;7.028;2022-07-23T01:14:10;36.00;;;22.77;;
2686;SDS011;1353;51.386;7.028;2022-07-23T01:16:38;32.83;;;21.83;;
2686;SDS011;1353;51.386;7.028;2022-07-23T01:19:06;32.63;;;21.10;;
2686;SDS011;1353;51.386;7.028;2022-07-23T01:21:37;35.70;;;23.00;;
2686;SDS011;1353;51.386;7.028;2022-07-23T01:24:06;34.67;;;24.00;;
2686;SDS011;1353;51.386;7.028;2022-07-23T01:26:33;34.47;;;22.47;;
2686;SDS011;1353;51.386;7.028;2022-07-23T01:29:00;30.80;;;22.20;;
2686;SDS011;1353;51.386;7.028;2022-07-23T01:31:27;34.03;;;24.03;;
2686;SDS011;1353;51.386;7.028;2022-07-23T01:33:54;38.23;;;22.20;;
2686;SDS011;1353;51.386;7.028;2022-07-23T01:36:21;34.37;;;22.63;;
2686;SDS011;1353;51.386;7.028;2022-07-23T01:38:48;36.27;;;22.10;;
2686;SDS011;1353;51.386;7.028;2022-07-23T01:41:16;33.73;;;21.80;;
2686;SDS011;1353;51.386;7.028;2022-07-23T01:43:43;36.77;;;23.87;;
2686;SDS011;1353;51.386;7.028;2022-07-23T01:46:10;37.23;;;25.53;;
2686;SDS011;1353;51.386;7.028;2022-07-23T01:48:37;38.67;;;24.10;;
2686;SDS011;1353;51.386;7.028;2022-07-23T01:51:04;33.17;;;22.63;;
2686;SDS011;1353;51.386;7.028;2022-07-23T01:53:31;38.97;;;23.90;;
2686;SDS011;1353;51.386;7.028;2022-07-23T01:55:58;38.37;;;23.17;;
2686;SDS011;1353;51.386;7.028;2022-07-23T01:58:26;36.00;;;21.37;;
2686;SDS011;1353;51.386;7.028;2022-07-23T02:00:53;37.97;;;23.47;;
2686;SDS011;1353;51.386;7.028;2022-07-23T02:03:21;40.43;;;24.10;;
2686;SDS011;1353;51.386;7.028;2022-07-23T02:05:48;36.37;;;22.70;;
2686;SDS011;1353;51.386;7.028;2022-07-23T02:08:15;34.77;;;22.33;;
2686;SDS011;1353;51.386;7.028;2022-07-23T02:10:42;35.73;;;22.40;;
2686;SDS011;1353;51.386;7.028;2022-07-23T02:13:10;38.87;;;24.10;;
2686;SDS011;1353;51.386;7.028;2022-07-23T02:15:38;37.50;;;24.23;;
2686;SDS011;1353;51.386;7.028;2022-07-23T02:18:05;42.67;;;24.47;;
2686;SDS011;1353;51.386;7.028;2022-07-23T02:20:33;33.20;;;23.07;;
2686;SDS011;1353;51.386;7.028;2022-07-23T02:23:00;47.53;;;24.20;;
2686;SDS011;1353;51.386;7.028;2022-07-23T02:25:26;34.27;;;22.50;;
2686;SDS011;1353;51.386;7.028;2022-07-23T02:27:53;38.00;;;24.57;;
2686;SDS011;1353;51.386;7.028;2022-07-23T02:30:20;45.03;;;24.73;;
2686;SDS011;1353;51.386;7.028;2022-07-23T02:32:48;54.37;;;25.00;;
2686;SDS011;1353;51.386;7.028;2022-07-23T02:35:15;41.73;;;24.70;;
2686;SDS011;1353;51.386;7.028;2022-07-23T02:37:41;39.13;;;24.73;;
2686;SDS011;1353;51.386;7.028;2022-07-23T02:40:08;39.53;;;22.27;;
2686;SDS011;1353;51.386;7.028;2022-07-23T02:42:36;42.87;;;22.77;;
2686;SDS011;1353;51.386;7.028;2022-07-23T02:45:03;41.90;;;24.17;;
2686;SDS011;1353;51.386;7.028;2022-07-23T02:47:31;36.10;;;22.97;;
2686;SDS011;1353;51.386;7.028;2022-07-23T02:49:59;39.00;;;21.73;;
2686;SDS011;1353;51.386;7.028;2022-07-23T02:52:26;36.37;;;23.70;;
2686;SDS011;1353;51.386;7.028;2022-07-23T02:54:52;42.10;;;24.97;;
2686;SDS011;1353;51.386;7.028;2022-07-23T02:57:19;45.97;;;25.07;;
2686;SDS011;1353;51.386;7.028;2022-07-23T02:59:46;42.70;;;26.10;;
2686;SDS011;1353;51.386;7.028;2022-07-23T03:02:12;43.87;;;24.30;;
2686;SDS011;1353;51.386;7.028;2022-07-23T03:04:39;43.13;;;25.00;;
2686;SDS011;1353;51.386;7.028;2022-07-23T03:07:08;41.47;;;24.40;;
2686;SDS011;1353;51.386;7.028;2022-07-23T03:09:35;40.20;;;23.90;;
2686;SDS011;1353;51.386;7.028;2022-07-23T03:12:02;33.93;;;23.20;;
2686;SDS011;1353;51.386;7.028;2022-07-23T03:14:29;31.07;;;20.77;;
2686;SDS011;1353;51.386;7.028;2022-07-23T03:16:55;36.83;;;21.30;;
2686;SDS011;1353;51.386;7.028;2022-07-23T03:19:24;37.20;;;22.67;;
2686;SDS011;1353;51.386;7.028;2022-07-23T03:21:51;32.70;;;22.20;;
2686;SDS011;1353;51.386;7.028;2022-07-23T03:24:19;37.10;;;21.37;;
2686;SDS011;1353;51.386;7.028;2022-07-23T03:26:48;35.70;;;21.70;;
2686;SDS011;1353;51.386;7.028;2022-07-23T03:29:15;33.67;;;22.10;;
2686;SDS011;1353;51.386;7.028;2022-07-23T03:31:42;40.67;;;22.70;;
2686;SDS011;1353;51.386;7.028;2022-07-23T03:34:09;30.30;;;19.90;;
2686;SDS011;1353;51.386;7.028;2022-07-23T03:36:35;35.57;;;18.60;;
2686;SDS011;1353;51.386;7.028;2022-07-23T03:39:02;37.20;;;19.77;;
2686;SDS011;1353;51.386;7.028;2022-07-23T03:41:31;53.43;;;21.30;;
2686;SDS011;1353;51.386;7.028;2022-07-23T03:43:57;40.20;;;20.27;;
2686;SDS011;1353;51.386;7.028;2022-07-23T03:46:24;51.27;;;20.00;;
2686;SDS011;1353;51.386;7.028;2022-07-23T03:48:51;143.30;;;23.13;;
2686;SDS011;1353;51.386;7.028;2022-07-23T03:51:17;104.20;;;22.07;;
2686;SDS011;1353;51.386;7.028;2022-07-23T03:53:44;97.07;;;21.90;;
2686;SDS011;1353;51.386;7.028;2022-07-23T03:56:11;112.53;;;25.10;;
2686;SDS011;1353;51.386;7.028;2022-07-23T03:58:39;216.60;;;30.33;;
2686;SDS011;1353;51.386;7.028;2022-07-23T04:01:06;88.27;;;23.60;;
2686;SDS011;1353;51.386;7.028;2022-07-23T04:03:32;157.90;;;26.90;;
2686;SDS011;1353;51.386;7.028;2022-07-23T04:05:59;144.60;;;25.30;;
2686;SDS011;1353;51.386;7.028;2022-07-23T04:08:26;101.27;;;25.20;;
2686;SDS011;1353;51.386;7.028;2022-07-23T04:10:53;112.20;;;22.93;;
2686;SDS011;1353;51.386;7.028;2022-07-23T04:13:19;107.00;;;25.50;;
2686;SDS011;1353;51.386;7.028;2022-07-23T04:15:47;50.10;;;22.63;;
2686;SDS011;1353;51.386;7.028;2022-07-23T04:18:15;43.83;;;22.60;;
2686;SDS011;1353;51.386;7.028;2022-07-23T04:20:43;37.57;;;22.30;;
2686;SDS011;1353;51.386;7.028;2022-07-23T04:23:10;39.67;;;21.47;;
2686;SDS011;1353;51.386;7.028;2022-07-23T04:25:37;45.70;;;23.83;;
2686;SDS011;1353;51.386;7.028;2022-07-23T04:28:04;38.53;;;23.20;;
2686;SDS011;1353;51.386;7.028;2022-07-23T04:30:31;38.90;;;22.80;;
2686;SDS011;1353;51.386;7.028;2022-07-23T04:32:59;36.10;;;22.90;;
2686;SDS011;1353;51.386;7.028;2022-07-23T04:35:25;38.60;;;23.47;;
2686;SDS011;1353;51.386;7.028;2022-07-23T04:37:52;42.70;;;23.90;;
2686;SDS011;1353;51.386;7.028;2022-07-23T04:40:19;44.00;;;23.10;;
2686;SDS011;1353;51.386;7.028;2022-07-23T04:42:46;43.90;;;24.20;;
2686;SDS011;1353;51.386;7.028;2022-07-23T04:45:12;46.20;;;23.70;;
2686;SDS011;1353;51.386;7.028;2022-07-23T04:47:39;42.97;;;25.53;;
2686;SDS011;1353;51.386;7.028;2022-07-23T04:50:07;53.93;;;27.47;;
2686;SDS011;1353;51.386;7.028;2022-07-23T04:52:34;52.90;;;27.90;;
2686;SDS011;1353;51.386;7.028;2022-07-23T04:55:01;65.23;;;28.20;;
2686;SDS011;1353;51.386;7.028;2022-07-23T04:57:28;50.97;;;31.33;;
2686;SDS011;1353;51.386;7.028;2022-07-23T04:59:55;60.87;;;31.23;;
2686;SDS011;1353;51.386;7.028;2022-07-23T05:02:22;51.77;;;29.97;;
2686;SDS011;1353;51.386;7.028;2022-07-23T05:04:48;54.10;;;28.67;;
2686;SDS011;1353;51.386;7.028;2022-07-23T05:07:16;44.80;;;29.13;;
2686;SDS011;1353;51.386;7.028;2022-07-23T05:09:43;48.50;;;26.57;;
2686;SDS011;1353;51.386;7.028;2022-07-23T05:12:10;43.97;;;26.93;;
2686;SDS011;1353;51.386;7.028;2022-07-23T05:14:37;39.50;;;25.00;;
2686;SDS011;1353;51.386;7.028;2022-07-23T05:17:03;46.93;;;25.77;;
2686;SDS011;1353;51.386;7.028;2022-07-23T05:19:30;42.83;;;26.53;;
2686;SDS011;1353;51.386;7.028;2022-07-23T05:21:57;44.20;;;26.20;;
2686;SDS011;1353;51.386;7.028;2022-07-23T05:24:25;46.23;;;26.73;;
2686;SDS011;1353;51.386;7.028;2022-07-23T05:26:51;47.47;;;27.80;;
2686;SDS011;1353;51.386;7.028;2022-07-23T05:29:18;43.07;;;26.97;;
2686;SDS011;1353;51.386;7.028;2022-07-23T05:31:45;44.27;;;25.13;;
2686;SDS011;1353;51.386;7.028;2022-07-23T05:34:12;39.63;;;27.57;;
2686;SDS011;1353;51.386;7.028;2022-07-23T05:36:38;42.20;;;26.30;;
2686;SDS011;1353;51.386;7.028;2022-07-23T05:39:05;42.70;;;28.00;;
2686;SDS011;1353;51.386;7.028;2022-07-23T05:41:33;40.60;;;25.47;;
2686;SDS011;1353;51.386;7.028;2022-07-23T05:44:00;44.37;;;28.70;;
2686;SDS011;1353;51.386;7.028;2022-07-23T05:46:26;46.03;;;28.40;;
2686;SDS011;1353;51.386;7.028;2022-07-23T05:48:53;45.87;;;28.60;;
2686;SDS011;1353;51.386;7.028;2022-07-23T05:51:20;39.73;;;28.10;;
2686;SDS011;1353;51.386;7.028;2022-07-23T05:53:47;45.83;;;29.40;;
2686;SDS011;1353;51.386;7.028;2022-07-23T05:56:14;49.87;;;30.97;;
2686;SDS011;1353;51.386;7.028;2022-07-23T05:58:42;44.00;;;29.77;;
2686;SDS011;1353;51.386;7.028;2022-07-23T06:01:09;44.63;;;29.30;;
2686;SDS011;1353;51.386;7.028;2022-07-23T06:03:37;42.30;;;30.30;;
2686;SDS011;1353;51.386;7.028;2022-07-23T06:06:04;42.50;;;30.37;;
2686;SDS011;1353;51.386;7.028;2022-07-23T06:08:31;45.30;;;31.97;;
2686;SDS011;1353;51.386;7.028;2022-07-23T06:10:58;41.53;;;29.53;;
2686;SDS011;1353;51.386;7.028;2022-07-23T06:13:25;48.30;;;31.00;;
2686;SDS011;1353;51.386;7.028;2022-07-23T06:15:53;48.03;;;31.47;;
2686;SDS011;1353;51.386;7.028;2022-07-23T06:18:20;46.90;;;31.50;;
2686;SDS011;1353;51.386;7.028;2022-07-23T06:20:46;43.50;;;31.63;;
2686;SDS011;1353;51.386;7.028;2022-07-23T06:23:13;45.57;;;30.40;;
2686;SDS011;1353;51.386;7.028;2022-07-23T06:25:40;48.27;;;31.80;;
2686;SDS011;1353;51.386;7.028;2022-07-23T06:28:07;46.47;;;31.13;;
2686;SDS011;1353;51.386;7.028;2022-07-23T06:30:33;47.33;;;31.13;;
2686;SDS011;1353;51.386;7.028;2022-07-23T06:33:01;41.43;;;28.60;;
2686;SDS011;1353;51.386;7.028;2022-07-23T06:35:31;37.87;;;26.23;;
2686;SDS011;1353;51.386;7.028;2022-07-23T06:38:01;34.70;;;24.40;;
2686;SDS011;1353;51.386;7.028;2022-07-23T06:40:28;32.40;;;26.90;;
2686;SDS011;1353;51.386;7.028;2022-07-23T06:42:54;33.03;;;23.93;;
2686;SDS011;1353;51.386;7.028;2022-07-23T06:45:21;27.70;;;22.87;;
2686;SDS011;1353;51.386;7.028;2022-07-23T06:47:48;28.20;;;24.23;;
2686;SDS011;1353;51.386;7.028;2022-07-23T06:50:16;31.03;;;24.03;;
2686;SDS011;1353;51.386;7.028;2022-07-23T06:52:43;29.47;;;22.30;;
2686;SDS011;1353;51.386;7.028;2022-07-23T06:55:10;24.17;;;20.87;;
2686;SDS011;1353;51.386;7.028;2022-07-23T06:57:37;24.00;;;18.50;;
2686;SDS011;1353;51.386;7.028;2022-07-23T07:00:04;20.80;;;18.40;;
2686;SDS011;1353;51.386;7.028;2022-07-23T07:02:32;18.00;;;15.97;;
2686;SDS011;1353;51.386;7.028;2022-07-23T07:04:58;21.43;;;19.13;;
2686;SDS011;1353;51.386;7.028;2022-07-23T07:07:26;20.17;;;18.00;;
2686;SDS011;1353;51.386;7.028;2022-07-23T07:09:53;21.60;;;18.00;;
2686;SDS011;1353;51.386;7.028;2022-07-23T07:12:20;21.53;;;17.90;;
2686;SDS011;1353;51.386;7.028;2022-07-23T07:14:47;18.10;;;16.20;;
2686;SDS011;1353;51.386;7.028;2022-07-23T07:17:13;16.27;;;14.67;;
2686;SDS011;1353;51.386;7.028;2022-07-23T07:19:40;16.93;;;13.97;;
2686;SDS011;1353;51.386;7.028;2022-07-23T07:22:07;17.90;;;13.57;;
2686;SDS011;1353;51.386;7.028;2022-07-23T07:24:35;15.77;;;13.77;;
2686;SDS011;1353;51.386;7.028;2022-07-23T07:27:02;17.17;;;15.40;;
2686;SDS011;1353;51.386;7.028;2022-07-23T07:29:29;15.63;;;14.13;;
2686;SDS011;1353;51.386;7.028;2022-07-23T07:31:56;16.37;;;14.47;;
2686;SDS011;1353;51.386;7.028;2022-07-23T07:34:22;17.60;;;13.93;;
2686;SDS011;1353;51.386;7.028;2022-07-23T07:36:49;15.60;;;14.00;;
2686;SDS011;1353;51.386;7.028;2022-07-23T07:39:16;16.30;;;14.47;;
2686;SDS011;1353;51.386;7.028;2022-07-23T07:41:44;14.67;;;13.27;;
2686;SDS011;1353;51.386;7.028;2022-07-23T07:44:11;13.50;;;12.23;;
2686;SDS011;1353;51.386;7.028;2022-07-23T07:46:37;15.27;;;13.77;;
2686;SDS011;1353;51.386;7.028;2022-07-23T07:49:04;14.33;;;12.80;;
2686;SDS011;1353;51.386;7.028;2022-07-23T07:51:31;17.13;;;12.60;;
2686;SDS011;1353;51.386;7.028;2022-07-23T07:53:58;13.70;;;12.40;;
2686;SDS011;1353;51.386;7.028;2022-07-23T07:56:26;14.03;;;12.77;;
2686;SDS011;1353;51.386;7.028;2022-07-23T07:58:54;14.73;;;13.33;;
2686;SDS011;1353;51.386;7.028;2022-07-23T08:01:21;15.93;;;14.20;;
2686;SDS011;1353;51.386;7.028;2022-07-23T08:03:48;12.73;;;11.63;;
2686;SDS011;1353;51.386;7.028;2022-07-23T08:06:14;13.57;;;12.27;;
2686;SDS011;1353;51.386;7.028;2022-07-23T08:08:41;14.10;;;12.67;;
2686;SDS011;1353;51.386;7.028;2022-07-23T08:11:08;13.47;;;12.20;;
2686;SDS011;1353;51.386;7.028;2022-07-23T08:13:35;14.97;;;13.70;;
2686;SDS011;1353;51.386;7.028;2022-07-23T08:16:03;13.83;;;12.53;;
2686;SDS011;1353;51.386;7.028;2022-07-23T08:18:30;14.30;;;13.00;;
2686;SDS011;1353;51.386;7.028;2022-07-23T08:20:57;14.30;;;12.97;;
2686;SDS011;1353;51.386;7.028;2022-07-23T08:23:24;15.20;;;13.90;;
2686;SDS011;1353;51.386;7.028;2022-07-23T08:25:52;14.50;;;13.30;;
2686;SDS011;1353;51.386;7.028;2022-07-23T08:28:19;14.77;;;13.60;;
2686;SDS011;1353;51.386;7.028;2022-07-23T08:30:46;13.83;;;12.67;;
2686;SDS011;1353;51.386;7.028;2022-07-23T08:33:15;10.83;;;9.93;;
2686;SDS011;1353;51.386;7.028;2022-07-23T08:35:44;10.53;;;9.47;;
2686;SDS011;1353;51.386;7.028;2022-07-23T08:38:12;10.67;;;9.67;;
2686;SDS011;1353;51.386;7.028;2022-07-23T08:40:40;10.70;;;9.87;;
2686;SDS011;1353;51.386;7.028;2022-07-23T08:43:09;9.07;;;8.30;;
2686;SDS011;1353;51.386;7.028;2022-07-23T08:45:38;8.80;;;7.93;;
2686;SDS011;1353;51.386;7.028;2022-07-23T08:48:07;9.10;;;8.30;;
2686;SDS011;1353;51.386;7.028;2022-07-23T08:50:38;8.37;;;7.43;;
2686;SDS011;1353;51.386;7.028;2022-07-23T08:53:09;8.47;;;7.70;;
2686;SDS011;1353;51.386;7.028;2022-07-23T08:55:36;8.47;;;7.70;;
2686;SDS011;1353;51.386;7.028;2022-07-23T08:58:03;6.83;;;6.20;;
2686;SDS011;1353;51.386;7.028;2022-07-23T09:00:30;8.00;;;7.23;;
2686;SDS011;1353;51.386;7.028;2022-07-23T09:02:58;6.07;;;5.57;;
2686;SDS011;1353;51.386;7.028;2022-07-23T09:05:25;6.60;;;6.00;;
2686;SDS011;1353;51.386;7.028;2022-07-23T09:08:04;5.90;;;5.50;;
2686;SDS011;1353;51.386;7.028;2022-07-23T09:10:45;6.20;;;5.80;;
2686;SDS011;1353;51.386;7.028;2022-07-23T09:13:22;6.70;;;6.20;;
2686;SDS011;1353;51.386;7.028;2022-07-23T09:15:50;7.80;;;7.17;;
2686;SDS011;1353;51.386;7.028;2022-07-23T09:18:18;7.00;;;6.33;;
2686;SDS011;1353;51.386;7.028;2022-07-23T09:20:45;7.57;;;6.70;;
2686;SDS011;1353;51.386;7.028;2022-07-23T09:23:13;6.30;;;5.80;;
2686;SDS011;1353;51.386;7.028;2022-07-23T09:25:40;6.23;;;5.70;;
2686;SDS011;1353;51.386;7.028;2022-07-23T09:28:06;5.60;;;5.20;;
2686;SDS011;1353;51.386;7.028;2022-07-23T09:30:33;6.37;;;5.97;;
2686;SDS011;1353;51.386;7.028;2022-07-23T09:33:04;6.23;;;5.73;;
2686;SDS011;1353;51.386;7.028;2022-07-23T09:35:43;6.10;;;5.63;;
2686;SDS011;1353;51.386;7.028;2022-07-23T09:38:13;5.23;;;4.93;;
2686;SDS011;1353;51.386;7.028;2022-07-23T09:40:40;5.93;;;5.43;;
2686;SDS011;1353;51.386;7.028;2022-07-23T09:43:07;5.10;;;4.60;;
2686;SDS011;1353;51.386;7.028;2022-07-23T09:45:33;3.70;;;3.43;;
2686;SDS011;1353;51.386;7.028;2022-07-23T09:48:10;4.60;;;3.40;;
2686;SDS011;1353;51.386;7.028;2022-07-23T09:50:38;4.50;;;4.10;;
2686;SDS011;1353;51.386;7.028;2022-07-23T09:53:05;4.33;;;3.63;;
2686;SDS011;1353;51.386;7.028;2022-07-23T09:55:34;3.70;;;3.40;;
2686;SDS011;1353;51.386;7.028;2022-07-23T09:58:03;3.80;;;3.50;;
2686;SDS011;1353;51.386;7.028;2022-07-23T10:00:31;3.57;;;3.27;;
2686;SDS011;1353;51.386;7.028;2022-07-23T10:02:59;4.40;;;4.10;;
2686;SDS011;1353;51.386;7.028;2022-07-23T10:05:27;4.10;;;3.30;;
2686;SDS011;1353;51.386;7.028;2022-07-23T10:07:56;3.40;;;3.20;;
2686;SDS011;1353;51.386;7.028;2022-07-23T10:10:25;3.20;;;2.50;;
2686;SDS011;1353;51.386;7.028;2022-07-23T10:12:54;3.70;;;3.50;;
2686;SDS011;1353;51.386;7.028;2022-07-23T10:15:38;3.93;;;3.63;;
2686;SDS011;1353;51.386;7.028;2022-07-23T10:18:06;4.40;;;3.43;;
2686;SDS011;1353;51.386;7.028;2022-07-23T10:20:33;4.03;;;3.60;;
2686;SDS011;1353;51.386;7.028;2022-07-23T10:23:01;4.03;;;3.73;;
2686;SDS011;1353;51.386;7.028;2022-07-23T10:25:36;5.00;;;3.23;;
2686;SDS011;1353;51.386;7.028;2022-07-23T10:28:12;2.93;;;2.70;;
2686;SDS011;1353;51.386;7.028;2022-07-23T10:31:02;2.57;;;2.37;;
2686;SDS011;1353;51.386;7.028;2022-07-23T10:33:38;3.87;;;3.27;;
2686;SDS011;1353;51.386;7.028;2022-07-23T10:36:18;3.23;;;3.00;;
2686;SDS011;1353;51.386;7.028;2022-07-23T10:38:49;4.70;;;3.43;;
2686;SDS011;1353;51.386;7.028;2022-07-23T10:41:33;4.07;;;2.90;;
2686;SDS011;1353;51.386;7.028;2022-07-23T10:44:09;3.23;;;2.60;;
2686;SDS011;1353;51.386;7.028;2022-07-23T10:49:37;3.20;;;3.00;;
2686;SDS011;1353;51.386;7.028;2022-07-23T10:54:50;3.50;;;3.30;;
2686;SDS011;1353;51.386;7.028;2022-07-23T10:57:20;3.33;;;3.03;;
2686;SDS011;1353;51.386;7.028;2022-07-23T11:02:48;3.20;;;2.70;;
2686;SDS011;1353;51.386;7.028;2022-07-23T11:05:16;2.90;;;2.23;;
2686;SDS011;1353;51.386;7.028;2022-07-23T11:10:42;6.33;;;2.30;;
2686;SDS011;1353;51.386;7.028;2022-07-23T11:13:29;2.10;;;2.00;;
2686;SDS011;1353;51.386;7.028;2022-07-23T11:16:06;4.30;;;3.03;;
2686;SDS011;1353;51.386;7.028;2022-07-23T11:24:22;3.13;;;2.93;;
2686;SDS011;1353;51.386;7.028;2022-07-23T11:26:53;3.17;;;2.97;;
2686;SDS011;1353;51.386;7.028;2022-07-23T11:29:37;2.47;;;2.27;;
2686;SDS011;1353;51.386;7.028;2022-07-23T11:32:08;2.53;;;2.33;;
2686;SDS011;1353;51.386;7.028;2022-07-23T11:34:44;2.40;;;2.20;;
2686;SDS011;1353;51.386;7.028;2022-07-23T11:37:15;2.00;;;1.90;;
2686;SDS011;1353;51.386;7.028;2022-07-23T11:39:54;2.80;;;2.50;;
2686;SDS011;1353;51.386;7.028;2022-07-23T11:42:21;4.20;;;2.90;;
2686;SDS011;1353;51.386;7.028;2022-07-23T11:44:49;3.27;;;3.00;;
2686;SDS011;1353;51.386;7.028;2022-07-23T11:47:21;2.50;;;2.40;;
2686;SDS011;1353;51.386;7.028;2022-07-23T11:49:52;3.63;;;2.80;;
2686;SDS011;1353;51.386;7.028;2022-07-23T11:52:20;3.40;;;3.20;;
2686;SDS011;1353;51.386;7.028;2022-07-23T11:54:48;2.43;;;2.33;;
2686;SDS011;1353;51.386;7.028;2022-07-23T11:57:17;3.03;;;2.60;;
2686;SDS011;1353;51.386;7.028;2022-07-23T11:59:45;3.07;;;2.87;;
2686;SDS011;1353;51.386;7.028;2022-07-23T12:02:14;5.30;;;2.70;;
2686;SDS011;1353;51.386;7.028;2022-07-23T12:04:42;3.30;;;2.70;;
2686;SDS011;1353;51.386;7.028;2022-07-23T12:07:27;2.40;;;2.30;;
2686;SDS011;1353;51.386;7.028;2022-07-23T12:09:55;2.10;;;2.00;;
2686;SDS011;1353;51.386;7.028;2022-07-23T12:12:23;3.00;;;2.40;;
2686;SDS011;1353;51.386;7.028;2022-07-23T12:14:50;3.47;;;2.73;;
2686;SDS011;1353;51.386;7.028;2022-07-23T12:17:19;2.80;;;2.60;;
2686;SDS011;1353;51.386;7.028;2022-07-23T12:19:49;3.23;;;3.00;;
2686;SDS011;1353;51.386;7.028;2022-07-23T12:22:16;2.63;;;2.53;;
2686;SDS011;1353;51.386;7.028;2022-07-23T12:24:52;3.30;;;3.00;;
2686;SDS011;1353;51.386;7.028;2022-07-23T12:27:20;4.40;;;2.40;;
2686;SDS011;1353;51.386;7.028;2022-07-23T12:29:47;2.20;;;2.10;;
2686;SDS011;1353;51.386;7.028;2022-07-23T12:32:18;2.47;;;2.27;;
2686;SDS011;1353;51.386;7.028;2022-07-23T12:34:49;2.50;;;2.33;;
2686;SDS011;1353;51.386;7.028;2022-07-23T12:37:26;3.10;;;2.40;;
2686;SDS011;1353;51.386;7.028;2022-07-23T12:39:54;3.47;;;3.27;;
2686;SDS011;1353;51.386;7.028;2022-07-23T12:42:20;2.67;;;2.00;;
2686;SDS011;1353;51.386;7.028;2022-07-23T12:45:07;2.93;;;2.70;;
2686;SDS011;1353;51.386;7.028;2022-07-23T12:47:56;3.10;;;2.90;;
2686;SDS011;1353;51.386;7.028;2022-07-23T12:50:36;3.13;;;2.93;;
2686;SDS011;1353;51.386;7.028;2022-07-23T12:53:06;3.00;;;2.50;;
2686;SDS011;1353;51.386;7.028;2022-07-23T12:55:35;3.23;;;2.53;;
2686;SDS011;1353;51.386;7.028;2022-07-23T12:58:04;3.50;;;3.30;;
2686;SDS011;1353;51.386;7.028;2022-07-23T13:00:33;3.67;;;3.43;;
2686;SDS011;1353;51.386;7.028;2022-07-23T13:03:23;3.90;;;2.83;;
2686;SDS011;1353;51.386;7.028;2022-07-23T13:05:53;3.63;;;3.33;;
2686;SDS011;1353;51.386;7.028;2022-07-23T13:08:20;2.53;;;2.33;;
2686;SDS011;1353;51.386;7.028;2022-07-23T13:10:47;3.13;;;2.93;;
2686;SDS011;1353;51.386;7.028;2022-07-23T13:13:16;4.30;;;3.87;;
2686;SDS011;1353;51.386;7.028;2022-07-23T13:15:43;3.20;;;3.00;;
2686;SDS011;1353;51.386;7.028;2022-07-23T13:18:10;3.53;;;2.80;;
2686;SDS011;1353;51.386;7.028;2022-07-23T13:20:37;3.70;;;3.40;;
2686;SDS011;1353;51.386;7.028;2022-07-23T13:23:06;2.90;;;2.70;;
2686;SDS011;1353;51.386;7.028;2022-07-23T13:25:33;3.57;;;3.00;;
2686;SDS011;1353;51.386;7.028;2022-07-23T13:28:00;3.00;;;2.80;;
2686;SDS011;1353;51.386;7.028;2022-07-23T13:30:26;2.50;;;2.40;;
2686;SDS011;1353;51.386;7.028;2022-07-23T13:32:53;4.03;;;3.70;;
2686;SDS011;1353;51.386;7.028;2022-07-23T13:35:20;5.93;;;3.77;;
2686;SDS011;1353;51.386;7.028;2022-07-23T13:37:47;4.43;;;3.97;;
2686;SDS011;1353;51.386;7.028;2022-07-23T13:40:15;3.80;;;3.50;;
2686;SDS011;1353;51.386;7.028;2022-07-23T13:42:42;5.70;;;4.57;;
2686;SDS011;1353;51.386;7.028;2022-07-23T13:45:09;4.90;;;4.60;;
2686;SDS011;1353;51.386;7.028;2022-07-23T13:47:36;5.07;;;3.90;;
2686;SDS011;1353;51.386;7.028;2022-07-23T13:50:03;4.53;;;4.23;;
2686;SDS011;1353;51.386;7.028;2022-07-23T13:52:31;3.10;;;2.83;;
2686;SDS011;1353;51.386;7.028;2022-07-23T13:54:58;4.80;;;4.00;;
2686;SDS011;1353;51.386;7.028;2022-07-23T13:57:27;4.07;;;3.80;;
2686;SDS011;1353;51.386;7.028;2022-07-23T13:59:54;4.10;;;3.80;;
2686;SDS011;1353;51.386;7.028;2022-07-23T14:02:21;4.27;;;3.97;;
2686;SDS011;1353;51.386;7.028;2022-07-23T14:04:48;4.00;;;3.70;;
2686;SDS011;1353;51.386;7.028;2022-07-23T14:07:16;4.53;;;4.13;;
2686;SDS011;1353;51.386;7.028;2022-07-23T14:09:43;4.53;;;4.13;;
2686;SDS011;1353;51.386;7.028;2022-07-23T14:12:10;3.90;;;3.60;;
2686;SDS011;1353;51.386;7.028;2022-07-23T14:14:38;4.20;;;3.90;;
2686;SDS011;1353;51.386;7.028;2022-07-23T14:17:05;3.50;;;3.20;;
2686;SDS011;1353;51.386;7.028;2022-07-23T14:19:32;4.13;;;3.60;;
2686;SDS011;1353;51.386;7.028;2022-07-23T14:21:58;4.30;;;4.00;;
2686;SDS011;1353;51.386;7.028;2022-07-23T14:24:25;4.17;;;3.83;;
2686;SDS011;1353;51.386;7.028;2022-07-23T14:26:52;4.20;;;3.90;;
2686;SDS011;1353;51.386;7.028;2022-07-23T14:29:19;4.80;;;3.80;;
2686;SDS011;1353;51.386;7.028;2022-07-23T14:31:47;5.87;;;3.63;;
2686;SDS011;1353;51.386;7.028;2022-07-23T14:34:14;4.63;;;3.60;;
2686;SDS011;1353;51.386;7.028;2022-07-23T14:36:41;4.13;;;3.73;;
2686;SDS011;1353;51.386;7.028;2022-07-23T14:39:07;3.47;;;3.17;;
2686;SDS011;1353;51.386;7.028;2022-07-23T14:41:34;4.23;;;3.60;;
2686;SDS011;1353;51.386;7.028;2022-07-23T14:44:01;5.33;;;3.23;;
2686;SDS011;1353;51.386;7.028;2022-07-23T14:46:29;6.60;;;4.50;;
2686;SDS011;1353;51.386;7.028;2022-07-23T14:48:57;5.83;;;4.27;;
2686;SDS011;1353;51.386;7.028;2022-07-23T14:51:23;5.30;;;4.80;;
2686;SDS011;1353;51.386;7.028;2022-07-23T14:53:50;4.33;;;3.93;;
2686;SDS011;1353;51.386;7.028;2022-07-23T14:56:17;7.10;;;4.40;;
2686;SDS011;1353;51.386;7.028;2022-07-23T14:58:44;5.67;;;4.33;;
2686;SDS011;1353;51.386;7.028;2022-07-23T15:01:11;4.63;;;4.23;;
2686;SDS011;1353;51.386;7.028;2022-07-23T15:03:38;4.63;;;4.33;;
2686;SDS011;1353;51.386;7.028;2022-07-23T15:06:06;5.50;;;5.00;;
2686;SDS011;1353;51.386;7.028;2022-07-23T15:08:33;4.37;;;3.90;;
2686;SDS011;1353;51.386;7.028;2022-07-23T15:11:00;4.07;;;3.77;;
2686;SDS011;1353;51.386;7.028;2022-07-23T15:13:27;5.60;;;3.73;;
2686;SDS011;1353;51.386;7.028;2022-07-23T15:15:53;6.00;;;4.20;;
2686;SDS011;1353;51.386;7.028;2022-07-23T15:18:20;5.13;;;4.17;;
2686;SDS011;1353;51.386;7.028;2022-07-23T15:20:47;4.87;;;3.80;;